sensor_id;sensor_type;location;lat;lon;timestamp;temperature;humidity
24326;DHT22;12448;45.532;5.290;2024-02-28T00:01:24;7.70;99.90
24326;DHT22;12448;45.532;5.290;2024-02-28T00:03:49;7.60;99.90
24326;DHT22;12448;45.532;5.290;2024-02-28T00:06:18;7.90;99.90
24326;DHT22;12448;45.532;5.290;2024-02-28T00:08:44;7.60;99.90
24326;DHT22;12448;45.532;5.290;2024-02-28T00:11:10;8.00;99.90
24326;DHT22;12448;45.532;5.290;2024-02-28T00:13:35;8.10;99.90
24326;DHT22;12448;45.532;5.290;2024-02-28T00:16:02;7.80;99.90
24326;DHT22;12448;45.532;5.290;2024-02-28T00:18:29;7.60;99.90
24326;DHT22;12448;45.532;5.290;2024-02-28T00:20:56;8.10;99.90
24326;DHT22;12448;45.532;5.290;2024-02-28T00:23:22;7.60;99.90
24326;DHT22;12448;45.532;5.290;2024-02-28T00:25:47;7.60;99.90
24326;DHT22;12448;45.532;5.290;2024-02-28T00:28:13;8.10;99.90
24326;DHT22;12448;45.532;5.290;2024-02-28T00:30:39;7.60;99.90
24326;DHT22;12448;45.532;5.290;2024-02-28T00:33:06;7.60;99.90
24326;DHT22;12448;45.532;5.290;2024-02-28T00:35:32;7.50;99.90
24326;DHT22;12448;45.532;5.290;2024-02-28T00:37:59;7.50;99.90
24326;DHT22;12448;45.532;5.290;2024-02-28T00:40:24;7.70;99.90
24326;DHT22;12448;45.532;5.290;2024-02-28T00:42:51;7.80;99.90
24326;DHT22;12448;45.532;5.290;2024-02-28T00:45:16;8.10;99.90
24326;DHT22;12448;45.532;5.290;2024-02-28T00:47:43;7.60;99.90
24326;DHT22;12448;45.532;5.290;2024-02-28T00:50:09;8.20;99.90
24326;DHT22;12448;45.532;5.290;2024-02-28T00:52:35;8.10;99.90
24326;DHT22;12448;45.532;5.290;2024-02-28T00:55:00;7.60;99.90
24326;DHT22;12448;45.532;5.290;2024-02-28T00:57:26;7.40;99.90
24326;DHT22;12448;45.532;5.290;2024-02-28T00:59:52;7.50;99.90
24326;DHT22;12448;45.532;5.290;2024-02-28T01:02:20;7.50;99.90
24326;DHT22;12448;45.532;5.290;2024-02-28T01:04:46;7.50;99.90
24326;DHT22;12448;45.532;5.290;2024-02-28T01:07:11;7.50;99.90
24326;DHT22;12448;45.532;5.290;2024-02-28T01:09:37;7.50;99.90
24326;DHT22;12448;45.532;5.290;2024-02-28T01:12:03;7.50;99.90
24326;DHT22;12448;45.532;5.290;2024-02-28T01:14:29;7.40;99.90
24326;DHT22;12448;45.532;5.290;2024-02-28T01:16:55;7.40;99.90
24326;DHT22;12448;45.532;5.290;2024-02-28T01:19:20;7.40;99.90
24326;DHT22;12448;45.532;5.290;2024-02-28T01:21:46;7.60;99.90
24326;DHT22;12448;45.532;5.290;2024-02-28T01:24:11;7.50;99.90
24326;DHT22;12448;45.532;5.290;2024-02-28T01:26:37;8.00;99.90
24326;DHT22;12448;45.532;5.290;2024-02-28T01:29:03;7.50;99.90
24326;DHT22;12448;45.532;5.290;2024-02-28T01:31:29;7.90;99.90
24326;DHT22;12448;45.532;5.290;2024-02-28T01:33:54;7.40;99.90
24326;DHT22;12448;45.532;5.290;2024-02-28T01:36:21;7.90;99.90
24326;DHT22;12448;45.532;5.290;2024-02-28T01:38:47;7.40;99.90
24326;DHT22;12448;45.532;5.290;2024-02-28T01:41:12;7.80;99.90
24326;DHT22;12448;45.532;5.290;2024-02-28T01:43:38;7.40;99.90
24326;DHT22;12448;45.532;5.290;2024-02-28T01:46:20;7.40;99.90
24326;DHT22;12448;45.532;5.290;2024-02-28T01:48:48;7.40;99.90
24326;DHT22;12448;45.532;5.290;2024-02-28T01:51:13;7.40;99.90
24326;DHT22;12448;45.532;5.290;2024-02-28T01:53:39;7.40;99.90
24326;DHT22;12448;45.532;5.290;2024-02-28T01:56:06;7.50;99.90
24326;DHT22;12448;45.532;5.290;2024-02-28T01:58:31;7.30;99.90
24326;DHT22;12448;45.532;5.290;2024-02-28T02:00:59;7.50;99.90
24326;DHT22;12448;45.532;5.290;2024-02-28T02:03:26;7.30;99.90
24326;DHT22;12448;45.532;5.290;2024-02-28T02:05:54;7.50;99.90
24326;DHT22;12448;45.532;5.290;2024-02-28T02:08:21;7.70;99.90
24326;DHT22;12448;45.532;5.290;2024-02-28T02:10:48;7.20;99.90
24326;DHT22;12448;45.532;5.290;2024-02-28T02:13:13;7.20;99.90
24326;DHT22;12448;45.532;5.290;2024-02-28T02:15:39;7.20;99.90
24326;DHT22;12448;45.532;5.290;2024-02-28T02:18:06;7.40;99.90
24326;DHT22;12448;45.532;5.290;2024-02-28T02:20:32;7.50;99.90
24326;DHT22;12448;45.532;5.290;2024-02-28T02:23:04;7.70;99.90
24326;DHT22;12448;45.532;5.290;2024-02-28T02:25:30;7.10;99.90
24326;DHT22;12448;45.532;5.290;2024-02-28T02:27:55;7.10;99.90
24326;DHT22;12448;45.532;5.290;2024-02-28T02:30:21;7.10;99.90
24326;DHT22;12448;45.532;5.290;2024-02-28T02:32:47;7.10;99.90
24326;DHT22;12448;45.532;5.290;2024-02-28T02:35:12;7.80;99.90
24326;DHT22;12448;45.532;5.290;2024-02-28T02:37:42;7.10;99.90
24326;DHT22;12448;45.532;5.290;2024-02-28T02:40:08;7.10;99.90
24326;DHT22;12448;45.532;5.290;2024-02-28T02:42:35;7.10;99.90
24326;DHT22;12448;45.532;5.290;2024-02-28T02:45:04;7.10;99.90
24326;DHT22;12448;45.532;5.290;2024-02-28T02:47:29;7.00;99.90
24326;DHT22;12448;45.532;5.290;2024-02-28T02:49:56;7.20;99.90
24326;DHT22;12448;45.532;5.290;2024-02-28T02:52:22;7.10;99.90
24326;DHT22;12448;45.532;5.290;2024-02-28T02:54:50;7.00;99.90
24326;DHT22;12448;45.532;5.290;2024-02-28T02:57:16;7.00;99.90
24326;DHT22;12448;45.532;5.290;2024-02-28T02:59:41;7.00;99.90
24326;DHT22;12448;45.532;5.290;2024-02-28T03:02:07;6.90;99.90
24326;DHT22;12448;45.532;5.290;2024-02-28T03:04:32;6.90;99.90
24326;DHT22;12448;45.532;5.290;2024-02-28T03:06:58;7.10;99.90
24326;DHT22;12448;45.532;5.290;2024-02-28T03:09:24;7.60;99.90
24326;DHT22;12448;45.532;5.290;2024-02-28T03:11:50;7.30;99.90
24326;DHT22;12448;45.532;5.290;2024-02-28T03:14:16;6.90;99.90
24326;DHT22;12448;45.532;5.290;2024-02-28T03:16:42;7.00;99.90
24326;DHT22;12448;45.532;5.290;2024-02-28T03:19:09;7.20;99.90
24326;DHT22;12448;45.532;5.290;2024-02-28T03:21:35;7.40;99.90
24326;DHT22;12448;45.532;5.290;2024-02-28T03:24:01;7.20;99.90
24326;DHT22;12448;45.532;5.290;2024-02-28T03:26:27;6.90;99.90
24326;DHT22;12448;45.532;5.290;2024-02-28T03:28:52;6.90;99.90
24326;DHT22;12448;45.532;5.290;2024-02-28T03:31:18;6.80;99.90
24326;DHT22;12448;45.532;5.290;2024-02-28T03:33:44;7.20;99.90
24326;DHT22;12448;45.532;5.290;2024-02-28T03:36:09;7.30;99.90
24326;DHT22;12448;45.532;5.290;2024-02-28T03:38:35;6.60;99.90
24326;DHT22;12448;45.532;5.290;2024-02-28T03:41:02;6.70;99.90
24326;DHT22;12448;45.532;5.290;2024-02-28T03:43:28;6.60;99.90
24326;DHT22;12448;45.532;5.290;2024-02-28T03:45:53;6.60;99.90
24326;DHT22;12448;45.532;5.290;2024-02-28T03:48:19;6.60;99.90
24326;DHT22;12448;45.532;5.290;2024-02-28T03:50:45;6.50;99.90
24326;DHT22;12448;45.532;5.290;2024-02-28T03:53:10;6.50;99.90
24326;DHT22;12448;45.532;5.290;2024-02-28T03:55:36;6.50;99.90
24326;DHT22;12448;45.532;5.290;2024-02-28T03:58:03;6.50;99.90
24326;DHT22;12448;45.532;5.290;2024-02-28T04:00:29;6.50;99.90
24326;DHT22;12448;45.532;5.290;2024-02-28T04:02:54;6.50;99.90
24326;DHT22;12448;45.532;5.290;2024-02-28T04:05:20;6.50;99.90
24326;DHT22;12448;45.532;5.290;2024-02-28T04:07:46;7.00;99.90
24326;DHT22;12448;45.532;5.290;2024-02-28T04:10:11;6.40;99.90
24326;DHT22;12448;45.532;5.290;2024-02-28T04:12:37;6.40;99.90
24326;DHT22;12448;45.532;5.290;2024-02-28T04:15:03;6.40;99.90
24326;DHT22;12448;45.532;5.290;2024-02-28T04:17:29;6.40;99.90
24326;DHT22;12448;45.532;5.290;2024-02-28T04:19:54;6.60;99.90
24326;DHT22;12448;45.532;5.290;2024-02-28T04:22:23;6.40;99.90
24326;DHT22;12448;45.532;5.290;2024-02-28T04:24:48;6.50;99.90
24326;DHT22;12448;45.532;5.290;2024-02-28T04:27:14;6.50;99.90
24326;DHT22;12448;45.532;5.290;2024-02-28T04:29:40;6.50;99.90
24326;DHT22;12448;45.532;5.290;2024-02-28T04:32:06;6.70;99.90
24326;DHT22;12448;45.532;5.290;2024-02-28T04:34:32;6.40;99.90
24326;DHT22;12448;45.532;5.290;2024-02-28T04:36:57;6.70;99.90
24326;DHT22;12448;45.532;5.290;2024-02-28T04:39:23;6.70;99.90
24326;DHT22;12448;45.532;5.290;2024-02-28T04:41:49;6.40;99.90
24326;DHT22;12448;45.532;5.290;2024-02-28T04:44:14;6.40;99.90
24326;DHT22;12448;45.532;5.290;2024-02-28T04:46:40;6.30;99.90
24326;DHT22;12448;45.532;5.290;2024-02-28T04:49:05;6.30;99.90
24326;DHT22;12448;45.532;5.290;2024-02-28T04:51:31;7.00;99.90
24326;DHT22;12448;45.532;5.290;2024-02-28T04:53:56;6.50;99.90
24326;DHT22;12448;45.532;5.290;2024-02-28T04:56:22;6.90;99.90
24326;DHT22;12448;45.532;5.290;2024-02-28T04:58:48;6.80;99.90
24326;DHT22;12448;45.532;5.290;2024-02-28T05:01:14;6.40;99.90
24326;DHT22;12448;45.532;5.290;2024-02-28T05:03:40;6.30;99.90
24326;DHT22;12448;45.532;5.290;2024-02-28T05:06:05;6.40;99.90
24326;DHT22;12448;45.532;5.290;2024-02-28T05:08:31;6.30;99.90
24326;DHT22;12448;45.532;5.290;2024-02-28T05:10:56;6.60;99.90
24326;DHT22;12448;45.532;5.290;2024-02-28T05:13:22;6.20;99.90
24326;DHT22;12448;45.532;5.290;2024-02-28T05:15:49;6.40;99.90
24326;DHT22;12448;45.532;5.290;2024-02-28T05:18:16;6.70;99.90
24326;DHT22;12448;45.532;5.290;2024-02-28T05:20:42;6.30;99.90
24326;DHT22;12448;45.532;5.290;2024-02-28T05:23:07;6.20;99.90
24326;DHT22;12448;45.532;5.290;2024-02-28T05:25:33;6.40;99.90
24326;DHT22;12448;45.532;5.290;2024-02-28T05:27:58;6.50;99.90
24326;DHT22;12448;45.532;5.290;2024-02-28T05:30:24;6.70;99.90
24326;DHT22;12448;45.532;5.290;2024-02-28T05:32:50;6.60;99.90
24326;DHT22;12448;45.532;5.290;2024-02-28T05:35:15;6.30;99.90
24326;DHT22;12448;45.532;5.290;2024-02-28T05:37:41;6.20;99.90
24326;DHT22;12448;45.532;5.290;2024-02-28T05:40:07;6.20;99.90
24326;DHT22;12448;45.532;5.290;2024-02-28T05:42:34;6.20;99.90
24326;DHT22;12448;45.532;5.290;2024-02-28T05:45:00;6.60;99.90
24326;DHT22;12448;45.532;5.290;2024-02-28T05:47:25;6.70;99.90
24326;DHT22;12448;45.532;5.290;2024-02-28T05:49:51;6.10;99.90
24326;DHT22;12448;45.532;5.290;2024-02-28T05:52:16;6.20;99.90
24326;DHT22;12448;45.532;5.290;2024-02-28T05:54:42;6.10;99.90
24326;DHT22;12448;45.532;5.290;2024-02-28T05:57:08;6.50;99.90
24326;DHT22;12448;45.532;5.290;2024-02-28T05:59:34;6.30;99.90
24326;DHT22;12448;45.532;5.290;2024-02-28T06:01:59;6.00;99.90
24326;DHT22;12448;45.532;5.290;2024-02-28T06:04:25;6.30;99.90
24326;DHT22;12448;45.532;5.290;2024-02-28T06:06:50;6.10;99.90
24326;DHT22;12448;45.532;5.290;2024-02-28T06:09:16;6.10;99.90
24326;DHT22;12448;45.532;5.290;2024-02-28T06:11:42;6.40;99.90
24326;DHT22;12448;45.532;5.290;2024-02-28T06:14:07;6.20;99.90
24326;DHT22;12448;45.532;5.290;2024-02-28T06:16:34;6.20;99.90
24326;DHT22;12448;45.532;5.290;2024-02-28T06:18:59;6.20;99.90
24326;DHT22;12448;45.532;5.290;2024-02-28T06:21:25;6.20;99.90
24326;DHT22;12448;45.532;5.290;2024-02-28T06:23:51;6.20;99.90
24326;DHT22;12448;45.532;5.290;2024-02-28T06:26:16;6.30;99.90
24326;DHT22;12448;45.532;5.290;2024-02-28T06:28:45;6.30;99.90
24326;DHT22;12448;45.532;5.290;2024-02-28T06:31:17;6.30;99.90
24326;DHT22;12448;45.532;5.290;2024-02-28T06:33:44;6.20;99.90
24326;DHT22;12448;45.532;5.290;2024-02-28T06:36:09;6.10;99.90
24326;DHT22;12448;45.532;5.290;2024-02-28T06:38:35;6.20;99.90
24326;DHT22;12448;45.532;5.290;2024-02-28T06:41:04;6.10;99.90
24326;DHT22;12448;45.532;5.290;2024-02-28T06:43:33;6.20;99.90
24326;DHT22;12448;45.532;5.290;2024-02-28T06:45:58;6.10;99.90
24326;DHT22;12448;45.532;5.290;2024-02-28T06:48:24;6.10;99.90
24326;DHT22;12448;45.532;5.290;2024-02-28T06:50:50;6.70;99.90
24326;DHT22;12448;45.532;5.290;2024-02-28T06:53:15;6.10;99.90
24326;DHT22;12448;45.532;5.290;2024-02-28T06:55:41;6.20;99.90
24326;DHT22;12448;45.532;5.290;2024-02-28T06:58:07;6.00;99.90
24326;DHT22;12448;45.532;5.290;2024-02-28T07:00:33;6.50;99.90
24326;DHT22;12448;45.532;5.290;2024-02-28T07:02:58;6.10;99.90
24326;DHT22;12448;45.532;5.290;2024-02-28T07:05:24;6.10;99.90
24326;DHT22;12448;45.532;5.290;2024-02-28T07:07:50;6.60;99.90
24326;DHT22;12448;45.532;5.290;2024-02-28T07:10:15;6.10;99.90
24326;DHT22;12448;45.532;5.290;2024-02-28T07:12:41;6.00;99.90
24326;DHT22;12448;45.532;5.290;2024-02-28T07:15:07;6.50;99.90
24326;DHT22;12448;45.532;5.290;2024-02-28T07:17:32;5.90;99.90
24326;DHT22;12448;45.532;5.290;2024-02-28T07:19:58;6.00;99.90
24326;DHT22;12448;45.532;5.290;2024-02-28T07:22:24;6.40;99.90
24326;DHT22;12448;45.532;5.290;2024-02-28T07:24:49;5.90;99.90
24326;DHT22;12448;45.532;5.290;2024-02-28T07:27:15;6.00;99.90
24326;DHT22;12448;45.532;5.290;2024-02-28T07:29:41;6.00;99.90
24326;DHT22;12448;45.532;5.290;2024-02-28T07:32:07;6.00;99.90
24326;DHT22;12448;45.532;5.290;2024-02-28T07:34:32;5.90;99.90
24326;DHT22;12448;45.532;5.290;2024-02-28T07:36:59;6.00;99.90
24326;DHT22;12448;45.532;5.290;2024-02-28T07:39:25;5.90;99.90
24326;DHT22;12448;45.532;5.290;2024-02-28T07:41:50;6.50;99.90
24326;DHT22;12448;45.532;5.290;2024-02-28T07:44:16;5.90;99.90
24326;DHT22;12448;45.532;5.290;2024-02-28T07:46:42;5.90;99.90
24326;DHT22;12448;45.532;5.290;2024-02-28T07:49:08;6.00;99.90
24326;DHT22;12448;45.532;5.290;2024-02-28T07:51:33;6.50;99.90
24326;DHT22;12448;45.532;5.290;2024-02-28T07:53:59;6.20;99.90
24326;DHT22;12448;45.532;5.290;2024-02-28T07:56:25;5.90;99.90
24326;DHT22;12448;45.532;5.290;2024-02-28T07:58:50;5.80;99.90
24326;DHT22;12448;45.532;5.290;2024-02-28T08:01:16;6.00;99.90
24326;DHT22;12448;45.532;5.290;2024-02-28T08:03:42;6.30;99.90
24326;DHT22;12448;45.532;5.290;2024-02-28T08:06:08;6.40;99.90
24326;DHT22;12448;45.532;5.290;2024-02-28T08:08:35;6.00;99.90
24326;DHT22;12448;45.532;5.290;2024-02-28T08:11:00;5.90;99.90
24326;DHT22;12448;45.532;5.290;2024-02-28T08:13:26;5.90;99.90
24326;DHT22;12448;45.532;5.290;2024-02-28T08:15:54;5.90;99.90
24326;DHT22;12448;45.532;5.290;2024-02-28T08:18:19;5.90;99.90
24326;DHT22;12448;45.532;5.290;2024-02-28T08:20:45;6.00;99.90
24326;DHT22;12448;45.532;5.290;2024-02-28T08:23:11;5.80;99.90
24326;DHT22;12448;45.532;5.290;2024-02-28T08:25:36;5.80;99.90
24326;DHT22;12448;45.532;5.290;2024-02-28T08:28:03;5.90;99.90
24326;DHT22;12448;45.532;5.290;2024-02-28T08:30:29;5.90;99.90
24326;DHT22;12448;45.532;5.290;2024-02-28T08:32:54;5.90;99.90
24326;DHT22;12448;45.532;5.290;2024-02-28T08:35:20;5.80;99.90
24326;DHT22;12448;45.532;5.290;2024-02-28T08:37:46;6.10;99.90
24326;DHT22;12448;45.532;5.290;2024-02-28T08:40:12;6.20;99.90
24326;DHT22;12448;45.532;5.290;2024-02-28T08:42:38;5.80;99.90
24326;DHT22;12448;45.532;5.290;2024-02-28T08:45:04;5.80;99.90
24326;DHT22;12448;45.532;5.290;2024-02-28T08:47:31;5.80;99.90
24326;DHT22;12448;45.532;5.290;2024-02-28T08:49:57;5.70;99.90
24326;DHT22;12448;45.532;5.290;2024-02-28T08:52:23;6.30;99.90
24326;DHT22;12448;45.532;5.290;2024-02-28T08:54:48;5.70;99.90
24326;DHT22;12448;45.532;5.290;2024-02-28T08:57:14;6.00;99.90
24326;DHT22;12448;45.532;5.290;2024-02-28T08:59:40;5.70;99.90
24326;DHT22;12448;45.532;5.290;2024-02-28T09:02:07;6.20;99.90
24326;DHT22;12448;45.532;5.290;2024-02-28T09:04:33;5.70;99.90
24326;DHT22;12448;45.532;5.290;2024-02-28T09:06:59;5.80;99.90
24326;DHT22;12448;45.532;5.290;2024-02-28T09:09:24;5.80;99.90
24326;DHT22;12448;45.532;5.290;2024-02-28T09:11:50;5.80;99.90
24326;DHT22;12448;45.532;5.290;2024-02-28T09:14:16;5.80;99.90
24326;DHT22;12448;45.532;5.290;2024-02-28T09:16:41;6.40;99.90
24326;DHT22;12448;45.532;5.290;2024-02-28T09:19:07;6.30;99.90
24326;DHT22;12448;45.532;5.290;2024-02-28T09:21:33;5.90;99.90
24326;DHT22;12448;45.532;5.290;2024-02-28T09:23:58;5.90;99.90
24326;DHT22;12448;45.532;5.290;2024-02-28T09:26:24;6.40;99.90
24326;DHT22;12448;45.532;5.290;2024-02-28T09:28:49;6.20;99.90
24326;DHT22;12448;45.532;5.290;2024-02-28T09:31:15;6.30;99.90
24326;DHT22;12448;45.532;5.290;2024-02-28T09:33:41;5.80;99.90
24326;DHT22;12448;45.532;5.290;2024-02-28T09:36:07;6.00;99.90
24326;DHT22;12448;45.532;5.290;2024-02-28T09:38:32;5.80;99.90
24326;DHT22;12448;45.532;5.290;2024-02-28T09:41:01;5.80;99.90
24326;DHT22;12448;45.532;5.290;2024-02-28T09:43:36;5.80;99.90
24326;DHT22;12448;45.532;5.290;2024-02-28T09:46:05;6.40;99.90
24326;DHT22;12448;45.532;5.290;2024-02-28T09:48:33;6.30;99.90
24326;DHT22;12448;45.532;5.290;2024-02-28T09:50:59;6.10;99.90
24326;DHT22;12448;45.532;5.290;2024-02-28T09:53:26;5.80;99.90
24326;DHT22;12448;45.532;5.290;2024-02-28T09:55:52;5.70;99.90
24326;DHT22;12448;45.532;5.290;2024-02-28T09:58:18;6.30;99.90
24326;DHT22;12448;45.532;5.290;2024-02-28T10:00:45;5.90;99.90
24326;DHT22;12448;45.532;5.290;2024-02-28T10:03:21;5.80;99.90
24326;DHT22;12448;45.532;5.290;2024-02-28T10:05:48;5.80;99.90
24326;DHT22;12448;45.532;5.290;2024-02-28T10:08:15;6.00;99.90
24326;DHT22;12448;45.532;5.290;2024-02-28T10:10:47;5.80;99.90
24326;DHT22;12448;45.532;5.290;2024-02-28T10:13:16;5.80;99.90
24326;DHT22;12448;45.532;5.290;2024-02-28T10:15:43;5.70;99.90
24326;DHT22;12448;45.532;5.290;2024-02-28T10:18:08;5.60;99.90
24326;DHT22;12448;45.532;5.290;2024-02-28T10:20:34;6.30;99.90
24326;DHT22;12448;45.532;5.290;2024-02-28T10:23:06;6.00;99.90
24326;DHT22;12448;45.532;5.290;2024-02-28T10:25:45;5.90;99.90
24326;DHT22;12448;45.532;5.290;2024-02-28T10:28:11;6.40;99.90
24326;DHT22;12448;45.532;5.290;2024-02-28T10:30:43;6.20;99.90
24326;DHT22;12448;45.532;5.290;2024-02-28T10:33:13;5.90;99.90
24326;DHT22;12448;45.532;5.290;2024-02-28T10:35:42;5.90;99.90
24326;DHT22;12448;45.532;5.290;2024-02-28T10:38:12;6.00;99.90
24326;DHT22;12448;45.532;5.290;2024-02-28T10:40:40;6.10;99.90
24326;DHT22;12448;45.532;5.290;2024-02-28T10:43:08;6.10;99.90
24326;DHT22;12448;45.532;5.290;2024-02-28T10:45:36;6.20;99.90
24326;DHT22;12448;45.532;5.290;2024-02-28T10:48:04;6.70;99.90
24326;DHT22;12448;45.532;5.290;2024-02-28T10:50:30;6.20;99.90
24326;DHT22;12448;45.532;5.290;2024-02-28T10:53:01;6.20;99.90
24326;DHT22;12448;45.532;5.290;2024-02-28T10:55:33;6.90;99.90
24326;DHT22;12448;45.532;5.290;2024-02-28T10:58:06;6.20;99.90
24326;DHT22;12448;45.532;5.290;2024-02-28T11:00:32;6.50;99.90
24326;DHT22;12448;45.532;5.290;2024-02-28T11:03:00;6.60;99.90
24326;DHT22;12448;45.532;5.290;2024-02-28T11:05:42;6.30;99.90
24326;DHT22;12448;45.532;5.290;2024-02-28T11:08:20;6.20;99.90
24326;DHT22;12448;45.532;5.290;2024-02-28T11:10:46;6.20;99.90
24326;DHT22;12448;45.532;5.290;2024-02-28T11:13:25;6.10;99.90
24326;DHT22;12448;45.532;5.290;2024-02-28T11:15:51;6.70;99.90
24326;DHT22;12448;45.532;5.290;2024-02-28T11:18:17;6.50;99.90
24326;DHT22;12448;45.532;5.290;2024-02-28T11:20:44;6.70;99.90
24326;DHT22;12448;45.532;5.290;2024-02-28T11:23:12;6.10;99.90
24326;DHT22;12448;45.532;5.290;2024-02-28T11:25:40;6.20;99.90
24326;DHT22;12448;45.532;5.290;2024-02-28T11:28:05;6.20;99.90
24326;DHT22;12448;45.532;5.290;2024-02-28T11:30:32;6.70;99.90
24326;DHT22;12448;45.532;5.290;2024-02-28T11:32:58;6.20;99.90
24326;DHT22;12448;45.532;5.290;2024-02-28T11:35:26;6.20;99.90
24326;DHT22;12448;45.532;5.290;2024-02-28T11:37:54;6.20;99.90
24326;DHT22;12448;45.532;5.290;2024-02-28T11:40:25;6.80;99.90
24326;DHT22;12448;45.532;5.290;2024-02-28T11:42:52;6.20;99.90
24326;DHT22;12448;45.532;5.290;2024-02-28T11:45:18;6.50;99.90
24326;DHT22;12448;45.532;5.290;2024-02-28T11:47:44;6.70;99.90
24326;DHT22;12448;45.532;5.290;2024-02-28T11:50:10;6.60;99.90
24326;DHT22;12448;45.532;5.290;2024-02-28T11:52:36;6.20;99.90
24326;DHT22;12448;45.532;5.290;2024-02-28T11:55:03;6.40;99.90
24326;DHT22;12448;45.532;5.290;2024-02-28T11:57:29;6.30;99.90
24326;DHT22;12448;45.532;5.290;2024-02-28T11:59:56;6.20;99.90
24326;DHT22;12448;45.532;5.290;2024-02-28T12:02:23;6.50;99.90
24326;DHT22;12448;45.532;5.290;2024-02-28T12:04:52;6.40;99.90
24326;DHT22;12448;45.532;5.290;2024-02-28T12:07:19;6.30;99.90
24326;DHT22;12448;45.532;5.290;2024-02-28T12:09:46;6.50;99.90
24326;DHT22;12448;45.532;5.290;2024-02-28T12:12:13;6.30;99.90
24326;DHT22;12448;45.532;5.290;2024-02-28T12:14:40;6.20;99.90
24326;DHT22;12448;45.532;5.290;2024-02-28T12:17:05;6.30;99.90
24326;DHT22;12448;45.532;5.290;2024-02-28T12:19:31;6.40;99.90
24326;DHT22;12448;45.532;5.290;2024-02-28T12:21:57;6.60;99.90
24326;DHT22;12448;45.532;5.290;2024-02-28T12:24:24;6.30;99.90
24326;DHT22;12448;45.532;5.290;2024-02-28T12:26:49;6.30;99.90
24326;DHT22;12448;45.532;5.290;2024-02-28T12:29:15;6.80;99.90
24326;DHT22;12448;45.532;5.290;2024-02-28T12:31:41;6.60;99.90
24326;DHT22;12448;45.532;5.290;2024-02-28T12:34:06;6.30;99.90
24326;DHT22;12448;45.532;5.290;2024-02-28T12:36:32;6.40;99.90
24326;DHT22;12448;45.532;5.290;2024-02-28T12:38:59;6.30;99.90
24326;DHT22;12448;45.532;5.290;2024-02-28T12:41:26;6.20;99.90
24326;DHT22;12448;45.532;5.290;2024-02-28T12:43:55;6.60;99.90
24326;DHT22;12448;45.532;5.290;2024-02-28T12:46:21;6.30;99.90
24326;DHT22;12448;45.532;5.290;2024-02-28T12:48:46;6.80;99.90
24326;DHT22;12448;45.532;5.290;2024-02-28T12:51:39;6.40;99.90
24326;DHT22;12448;45.532;5.290;2024-02-28T12:54:07;6.40;99.90
24326;DHT22;12448;45.532;5.290;2024-02-28T12:56:34;6.30;99.90
24326;DHT22;12448;45.532;5.290;2024-02-28T12:59:00;6.80;99.90
24326;DHT22;12448;45.532;5.290;2024-02-28T13:01:26;6.80;99.90
24326;DHT22;12448;45.532;5.290;2024-02-28T13:03:52;7.10;99.90
24326;DHT22;12448;45.532;5.290;2024-02-28T13:06:18;6.20;99.90
24326;DHT22;12448;45.532;5.290;2024-02-28T13:08:43;6.80;99.90
24326;DHT22;12448;45.532;5.290;2024-02-28T13:11:20;6.50;99.90
24326;DHT22;12448;45.532;5.290;2024-02-28T13:13:51;6.50;99.90
24326;DHT22;12448;45.532;5.290;2024-02-28T13:16:17;6.50;99.90
24326;DHT22;12448;45.532;5.290;2024-02-28T13:18:43;7.00;99.90
24326;DHT22;12448;45.532;5.290;2024-02-28T13:21:09;6.60;99.90
24326;DHT22;12448;45.532;5.290;2024-02-28T13:23:35;6.50;99.90
24326;DHT22;12448;45.532;5.290;2024-02-28T13:26:03;6.50;99.90
24326;DHT22;12448;45.532;5.290;2024-02-28T13:28:29;6.60;99.90
24326;DHT22;12448;45.532;5.290;2024-02-28T13:31:01;7.00;99.90
24326;DHT22;12448;45.532;5.290;2024-02-28T13:33:27;6.50;99.90
24326;DHT22;12448;45.532;5.290;2024-02-28T13:35:53;7.00;99.90
24326;DHT22;12448;45.532;5.290;2024-02-28T13:38:20;6.60;99.90
24326;DHT22;12448;45.532;5.290;2024-02-28T13:40:49;7.20;99.90
24326;DHT22;12448;45.532;5.290;2024-02-28T13:43:18;6.90;99.90
24326;DHT22;12448;45.532;5.290;2024-02-28T13:45:50;7.10;99.90
24326;DHT22;12448;45.532;5.290;2024-02-28T13:48:25;6.40;99.90
24326;DHT22;12448;45.532;5.290;2024-02-28T13:50:51;6.40;99.90
24326;DHT22;12448;45.532;5.290;2024-02-28T13:53:17;6.90;99.90
24326;DHT22;12448;45.532;5.290;2024-02-28T13:55:43;6.50;99.90
24326;DHT22;12448;45.532;5.290;2024-02-28T13:58:13;6.50;99.90
24326;DHT22;12448;45.532;5.290;2024-02-28T14:00:39;6.50;99.90
24326;DHT22;12448;45.532;5.290;2024-02-28T14:03:06;6.60;99.90
24326;DHT22;12448;45.532;5.290;2024-02-28T14:05:32;6.70;99.90
24326;DHT22;12448;45.532;5.290;2024-02-28T14:07:58;6.70;99.90
24326;DHT22;12448;45.532;5.290;2024-02-28T14:10:25;6.70;99.90
24326;DHT22;12448;45.532;5.290;2024-02-28T14:12:51;7.30;99.90
24326;DHT22;12448;45.532;5.290;2024-02-28T14:15:20;6.90;99.90
24326;DHT22;12448;45.532;5.290;2024-02-28T14:17:46;6.70;99.90
24326;DHT22;12448;45.532;5.290;2024-02-28T14:20:12;6.70;99.90
24326;DHT22;12448;45.532;5.290;2024-02-28T14:22:38;6.70;99.90
24326;DHT22;12448;45.532;5.290;2024-02-28T14:25:18;6.70;99.90
24326;DHT22;12448;45.532;5.290;2024-02-28T14:27:46;6.70;99.90
24326;DHT22;12448;45.532;5.290;2024-02-28T14:30:13;6.70;99.90
24326;DHT22;12448;45.532;5.290;2024-02-28T14:32:40;6.70;99.90
24326;DHT22;12448;45.532;5.290;2024-02-28T14:35:07;6.80;99.90
24326;DHT22;12448;45.532;5.290;2024-02-28T14:37:34;6.80;99.90
24326;DHT22;12448;45.532;5.290;2024-02-28T14:40:00;6.80;99.90
24326;DHT22;12448;45.532;5.290;2024-02-28T14:42:34;7.50;99.90
24326;DHT22;12448;45.532;5.290;2024-02-28T14:45:00;7.40;99.90
24326;DHT22;12448;45.532;5.290;2024-02-28T14:47:25;7.00;99.90
24326;DHT22;12448;45.532;5.290;2024-02-28T14:49:51;6.90;99.90
24326;DHT22;12448;45.532;5.290;2024-02-28T14:52:17;6.90;99.90
24326;DHT22;12448;45.532;5.290;2024-02-28T14:54:43;7.40;99.90
24326;DHT22;12448;45.532;5.290;2024-02-28T14:57:10;7.30;99.90
24326;DHT22;12448;45.532;5.290;2024-02-28T14:59:35;7.60;99.90
24326;DHT22;12448;45.532;5.290;2024-02-28T15:02:01;7.60;99.90
24326;DHT22;12448;45.532;5.290;2024-02-28T15:04:27;7.70;99.90
24326;DHT22;12448;45.532;5.290;2024-02-28T15:06:55;7.10;99.90
24326;DHT22;12448;45.532;5.290;2024-02-28T15:09:21;7.00;99.90
24326;DHT22;12448;45.532;5.290;2024-02-28T15:11:51;7.10;99.90
24326;DHT22;12448;45.532;5.290;2024-02-28T15:14:18;7.10;99.90
24326;DHT22;12448;45.532;5.290;2024-02-28T15:16:44;7.10;99.90
24326;DHT22;12448;45.532;5.290;2024-02-28T15:19:10;7.10;99.90
24326;DHT22;12448;45.532;5.290;2024-02-28T15:21:36;7.10;99.90
24326;DHT22;12448;45.532;5.290;2024-02-28T15:24:02;7.80;99.90
24326;DHT22;12448;45.532;5.290;2024-02-28T15:26:29;7.10;99.90
24326;DHT22;12448;45.532;5.290;2024-02-28T15:28:54;7.20;99.90
24326;DHT22;12448;45.532;5.290;2024-02-28T15:31:20;7.10;99.90
24326;DHT22;12448;45.532;5.290;2024-02-28T15:33:49;7.10;99.90
24326;DHT22;12448;45.532;5.290;2024-02-28T15:36:17;7.10;99.90
24326;DHT22;12448;45.532;5.290;2024-02-28T15:38:43;6.90;99.90
24326;DHT22;12448;45.532;5.290;2024-02-28T15:41:09;7.10;99.90